Time;durP1;ratioP1;P1;durP2;ratioP2;P2;SDS_P1;SDS_P2;PMS_P1;PMS_P2;Temp;Humidity;BMP_temperature;BMP_pressure;BME280_temperature;BME280_humidity;BME280_pressure;Samples;Min_cycle;Max_cycle;Signal;HPM_P1;HPM_P2
2023/07/13 00:01:49;;;;;;;12.63;8.45;;;;;;;24.20;66.84;99338.34;4943629;29;20085;-93
2023/07/13 00:04:15;;;;;;;13.52;8.40;;;;;;;24.19;67.29;99339.47;4928681;29;20113;-92
2023/07/13 00:06:44;;;;;;;11.32;7.97;;;;;;;24.13;67.18;99336.19;4927529;29;20425;-93
2023/07/13 00:09:16;;;;;;;12.30;8.95;;;;;;;24.02;67.36;99337.94;4927581;29;20039;-92
2023/07/13 00:11:42;;;;;;;11.70;8.20;;;;;;;23.86;67.72;99329.72;4923740;29;20486;-92
2023/07/13 00:14:08;;;;;;;14.27;9.40;;;;;;;23.94;67.41;99342.47;4924431;29;20027;-91
2023/07/13 00:16:37;;;;;;;11.52;8.77;;;;;;;23.98;67.66;99343.34;4908669;29;20027;-92
2023/07/13 00:19:03;;;;;;;12.65;8.75;;;;;;;23.86;67.71;99328.94;4908211;29;20031;-92
2023/07/13 00:21:28;;;;;;;12.70;9.02;;;;;;;23.82;68.34;99334.34;4908283;29;20023;-92
2023/07/13 00:23:54;;;;;;;16.30;9.27;;;;;;;23.65;68.18;99326.47;4907693;29;20039;-92
2023/07/13 00:26:19;;;;;;;12.57;8.95;;;;;;;23.63;68.41;99326.03;4908372;29;20039;-93
2023/07/13 00:28:44;;;;;;;14.63;9.00;;;;;;;23.59;68.57;99337.75;4907955;29;20039;-92
2023/07/13 00:31:11;;;;;;;11.00;8.55;;;;;;;23.59;68.51;99331.44;4906935;29;20024;-93
2023/07/13 00:33:36;;;;;;;12.02;8.90;;;;;;;23.56;68.08;99330.19;4907778;29;20023;-93
2023/07/13 00:36:02;;;;;;;13.07;8.93;;;;;;;23.50;68.45;99328.09;4907990;29;20030;-92
2023/07/13 00:38:28;;;;;;;18.52;8.73;;;;;;;23.46;68.05;99322.50;4922942;29;20038;-93
2023/07/13 00:40:53;;;;;;;12.82;9.05;;;;;;;23.55;68.24;99334.13;4907631;29;20023;-92
2023/07/13 00:43:20;;;;;;;11.55;8.48;;;;;;;23.46;68.48;99324.44;4908407;29;20073;-93
2023/07/13 00:45:49;;;;;;;15.93;9.25;;;;;;;23.50;68.49;99326.13;4907568;29;20035;-93
2023/07/13 00:48:17;;;;;;;11.52;8.80;;;;;;;23.44;69.01;99321.25;4938308;29;20115;-92
2023/07/13 00:50:43;;;;;;;14.52;8.75;;;;;;;23.46;68.79;99322.50;4907743;29;20038;-92
2023/07/13 00:53:09;;;;;;;10.82;8.93;;;;;;;23.47;68.40;99315.88;4907897;29;20007;-92
2023/07/13 00:55:35;;;;;;;13.73;9.30;;;;;;;23.51;68.95;99324.16;4907698;29;20490;-92
2023/07/13 00:58:00;;;;;;;11.57;8.23;;;;;;;23.49;69.23;99330.03;4906573;29;20395;-92
2023/07/13 01:00:26;;;;;;;12.85;9.00;;;;;;;23.49;68.38;99316.31;4906610;29;20023;-94
2023/07/13 01:02:51;;;;;;;12.98;8.80;;;;;;;23.48;68.46;99306.44;4907021;29;20103;-93
2023/07/13 01:05:19;;;;;;;14.73;8.90;;;;;;;23.47;68.63;99315.88;4906714;29;20383;-92
2023/07/13 01:07:45;;;;;;;14.35;9.50;;;;;;;23.47;69.34;99317.78;4900694;29;20028;-92
2023/07/13 01:10:11;;;;;;;13.02;9.30;;;;;;;23.42;69.59;99321.63;4888436;29;20554;-93
2023/07/13 01:12:37;;;;;;;11.88;8.25;;;;;;;23.29;69.63;99317.38;4888602;29;20434;-91
2023/07/13 01:15:03;;;;;;;9.90;8.32;;;;;;;23.29;69.56;99309.94;4888680;29;20044;-92
2023/07/13 01:17:28;;;;;;;13.73;8.98;;;;;;;23.24;70.07;99320.38;4888442;29;20028;-93
2023/07/13 01:19:54;;;;;;;11.88;8.00;;;;;;;23.23;69.76;99321.53;4888118;29;20028;-92
2023/07/13 01:22:25;;;;;;;13.05;8.57;;;;;;;23.12;69.94;99313.84;4888383;29;20032;-93
2023/07/13 01:24:50;;;;;;;14.85;8.93;;;;;;;23.11;70.07;99322.41;4889997;29;20035;-92
2023/07/13 01:27:17;;;;;;;12.50;8.23;;;;;;;23.07;70.43;99325.06;4888400;29;20431;-92
2023/07/13 01:29:46;;;;;;;15.45;9.00;;;;;;;22.96;70.35;99313.00;4900490;29;20023;-92
2023/07/13 01:32:13;;;;;;;14.90;9.05;;;;;;;22.95;70.26;99317.69;4907477;29;20174;-93
2023/07/13 01:34:42;;;;;;;13.35;8.80;;;;;;;22.98;70.39;99319.72;4907107;29;20016;-92
2023/07/13 01:37:08;;;;;;;12.95;8.00;;;;;;;22.91;70.41;99308.56;4908403;29;20032;-92
2023/07/13 01:39:33;;;;;;;14.82;9.50;;;;;;;22.86;70.78;99314.31;4907054;29;20027;-92
2023/07/13 01:41:59;;;;;;;12.30;8.93;;;;;;;22.86;71.03;99308.03;4906787;29;20048;-94
2023/07/13 01:44:25;;;;;;;14.07;8.57;;;;;;;22.79;70.60;99305.88;4907184;29;20442;-93
2023/07/13 01:46:51;;;;;;;12.20;8.02;;;;;;;22.76;70.97;99306.56;4906204;29;20035;-92
2023/07/13 01:49:17;;;;;;;12.40;8.35;;;;;;;22.75;71.39;99314.03;4906156;29;20032;-93
2023/07/13 01:51:42;;;;;;;14.63;8.85;;;;;;;22.63;71.00;99302.31;4907253;29;20463;-92
2023/07/13 01:54:08;;;;;;;12.75;8.93;;;;;;;22.65;71.20;99302.75;4906343;29;20039;-93
2023/07/13 01:56:33;;;;;;;14.95;8.70;;;;;;;22.66;70.72;99296.94;4906013;29;20028;-93
2023/07/13 01:58:59;;;;;;;15.70;9.30;;;;;;;22.74;71.11;99323.41;4906111;29;20553;-93
2023/07/13 02:01:24;;;;;;;12.75;8.65;;;;;;;22.76;70.96;99331.28;4905725;29;20039;-92
2023/07/13 02:03:50;;;;;;;14.45;8.23;;;;;;;22.60;71.41;99303.81;4906275;29;20032;-92
2023/07/13 02:06:15;;;;;;;13.75;8.10;;;;;;;22.70;70.81;99317.03;4906742;29;20027;-92
2023/07/13 02:08:42;;;;;;;16.20;9.15;;;;;;;22.68;70.95;99321.25;4906081;29;20046;-91
2023/07/13 02:11:07;;;;;;;14.80;8.95;;;;;;;22.66;70.37;99307.91;4906534;29;20502;-93
2023/07/13 02:13:33;;;;;;;11.93;9.15;;;;;;;22.71;70.95;99310.38;4905777;29;20031;-92
2023/07/13 02:16:00;;;;;;;13.18;8.55;;;;;;;22.72;71.02;99316.66;4905557;29;20028;-92
2023/07/13 02:18:25;;;;;;;13.80;8.88;;;;;;;22.67;70.89;99323.22;4905599;29;20071;-92
2023/07/13 02:20:51;;;;;;;10.93;8.85;;;;;;;22.65;71.09;99325.50;4905842;29;20023;-92
2023/07/13 02:23:16;;;;;;;13.10;9.18;;;;;;;22.62;71.17;99322.66;4903429;29;20063;-93
2023/07/13 02:25:42;;;;;;;15.13;9.93;;;;;;;22.46;71.34;99312.44;4905198;29;20023;-92
2023/07/13 02:28:07;;;;;;;12.38;9.15;;;;;;;22.45;71.09;99313.59;4905987;29;20031;-91
2023/07/13 02:30:34;;;;;;;16.63;9.48;;;;;;;22.32;71.22;99301.88;4905166;29;20507;-92
2023/07/13 02:32:59;;;;;;;14.35;9.70;;;;;;;22.39;70.90;99320.47;4905789;29;20479;-92
2023/07/13 02:35:25;;;;;;;13.10;9.23;;;;;;;22.30;71.00;99306.13;4906135;29;20026;-93
2023/07/13 02:37:50;;;;;;;11.88;8.52;;;;;;;22.37;70.34;99322.75;4905721;29;20055;-92
2023/07/13 02:40:16;;;;;;;14.63;9.10;;;;;;;22.48;70.00;99334.06;4906859;29;20031;-93
2023/07/13 02:42:41;;;;;;;15.80;8.90;;;;;;;22.39;70.02;99318.53;4906031;29;20051;-93
2023/07/13 02:45:10;;;;;;;14.18;8.88;;;;;;;22.32;70.24;99312.84;4905194;29;20034;-92
2023/07/13 02:47:36;;;;;;;12.20;8.75;;;;;;;22.35;70.56;99311.34;4906188;29;20410;-94
2023/07/13 02:50:02;;;;;;;11.57;8.55;;;;;;;22.43;69.65;99323.31;4906436;29;20023;-93
2023/07/13 02:52:27;;;;;;;14.15;9.00;;;;;;;22.46;69.95;99333.63;4906394;29;20039;-93
2023/07/13 02:54:53;;;;;;;13.43;8.73;;;;;;;22.45;69.77;99327.31;4908093;29;20024;-93
2023/07/13 02:57:18;;;;;;;9.95;7.97;;;;;;;22.50;70.17;99331.78;4910784;29;20036;-93
2023/07/13 02:59:44;;;;;;;12.90;8.43;;;;;;;22.54;69.99;99333.47;4910381;29;20410;-93
2023/07/13 03:02:09;;;;;;;14.43;8.40;;;;;;;22.57;70.21;99342.94;4909816;29;20561;-91
2023/07/13 03:04:37;;;;;;;10.90;8.55;;;;;;;22.60;70.20;99337.53;4909924;29;20023;-94
2023/07/13 03:07:04;;;;;;;19.70;8.60;;;;;;;22.60;70.11;99347.72;4909016;29;20401;-92
2023/07/13 03:09:31;;;;;;;15.13;9.57;;;;;;;22.54;70.43;99327.19;4909877;29;20028;-93
2023/07/13 03:11:56;;;;;;;12.95;8.63;;;;;;;22.65;70.27;99344.72;4909394;29;20050;-94
2023/07/13 03:14:22;;;;;;;15.00;9.30;;;;;;;22.66;70.26;99332.63;4909161;29;20024;-92
2023/07/13 03:16:48;;;;;;;14.77;8.63;;;;;;;22.55;70.30;99323.28;4910583;29;20030;-93
2023/07/13 03:19:13;;;;;;;17.75;9.77;;;;;;;22.63;70.23;99322.31;4910333;29;20132;-93
2023/07/13 03:21:39;;;;;;;27.10;21.83;;;;;;;22.65;71.08;99343.94;4910158;29;20047;-95
2023/07/13 03:24:06;;;;;;;17.63;9.63;;;;;;;22.55;70.39;99337.00;4910199;29;20039;-94
2023/07/13 03:26:31;;;;;;;15.52;8.95;;;;;;;22.54;70.48;99329.91;4909771;29;20038;-93
2023/07/13 03:28:57;;;;;;;14.27;9.15;;;;;;;22.54;70.24;99336.19;4909101;29;20406;-92
2023/07/13 03:31:25;;;;;;;18.27;8.32;;;;;;;22.63;70.43;99348.97;4909856;29;20063;-92
2023/07/13 03:33:51;;;;;;;12.23;8.32;;;;;;;22.72;69.83;99355.91;4910086;29;20088;-93
2023/07/13 03:36:27;;;;;;;15.60;9.20;;;;;;;22.76;69.65;99350.50;4925471;29;20055;-94
2023/07/13 03:38:58;;;;;;;19.92;8.93;;;;;;;22.64;70.41;99342.31;4909502;29;20118;-93
2023/07/13 03:41:24;;;;;;;16.80;8.82;;;;;;;22.47;71.01;99344.22;4924984;29;20525;-91
2023/07/13 03:43:49;;;;;;;15.95;8.57;;;;;;;22.44;70.81;99339.44;4908915;29;20039;-92
2023/07/13 03:46:16;;;;;;;13.75;9.13;;;;;;;22.35;70.84;99322.31;4909036;29;20000;-90
2023/07/13 03:48:46;;;;;;;22.48;14.57;;;;;;;22.35;71.28;99331.34;4909007;29;20122;-92
2023/07/13 03:51:14;;;;;;;18.83;10.20;;;;;;;22.25;71.89;99331.06;4909848;29;20035;-92
2023/07/13 03:53:40;;;;;;;18.40;10.77;;;;;;;22.40;71.17;99353.06;4909491;29;20024;-92
2023/07/13 03:56:06;;;;;;;21.23;11.05;;;;;;;22.48;71.11;99350.53;4909309;29;20020;-94
2023/07/13 03:58:33;;;;;;;19.88;10.75;;;;;;;22.60;71.11;99358.72;4912619;29;20058;-90
2023/07/13 04:00:58;;;;;;;23.17;11.07;;;;;;;22.69;70.81;99358.56;4925116;29;20030;-92
2023/07/13 04:03:24;;;;;;;21.83;10.57;;;;;;;22.71;70.40;99348.81;4914448;29;20099;-93
2023/07/13 04:05:50;;;;;;;20.52;11.25;;;;;;;22.80;69.93;99349.44;4883981;29;20059;-88
2023/07/13 04:08:15;;;;;;;18.70;11.65;;;;;;;22.77;70.25;99346.63;4905323;29;20043;-89
2023/07/13 04:10:41;;;;;;;18.20;10.77;;;;;;;22.78;70.45;99343.50;4888721;29;20066;-88
2023/07/13 04:13:06;;;;;;;18.63;10.40;;;;;;;22.89;70.51;99354.78;4889397;29;20068;-89
2023/07/13 04:15:32;;;;;;;17.70;11.07;;;;;;;22.90;69.14;99333.63;4888835;29;20036;-90
2023/07/13 04:17:57;;;;;;;15.18;10.45;;;;;;;22.96;69.14;99341.25;4889796;29;20028;-90
2023/07/13 04:20:25;;;;;;;14.82;9.88;;;;;;;23.06;67.43;99339.19;4888725;29;20452;-90
2023/07/13 04:22:50;;;;;;;18.67;10.45;;;;;;;23.10;68.20;99348.31;4890290;29;20506;-90
2023/07/13 04:25:22;;;;;;;15.23;10.18;;;;;;;23.19;67.25;99343.41;4908696;29;20031;-89
2023/07/13 04:27:47;;;;;;;14.07;8.98;;;;;;;23.27;65.66;99339.72;4909561;29;20118;-92
2023/07/13 04:30:13;;;;;;;16.73;8.93;;;;;;;23.48;64.43;99349.63;4909455;29;20024;-93
2023/07/13 04:32:38;;;;;;;15.02;9.25;;;;;;;23.57;63.24;99340.06;4909282;29;20032;-91
2023/07/13 04:35:05;;;;;;;10.75;7.88;;;;;;;23.76;61.44;99344.84;4908124;29;20039;-91
2023/07/13 04:37:30;;;;;;;14.55;8.38;;;;;;;23.89;61.11;99341.97;4910060;29;20027;-92
2023/07/13 04:39:55;;;;;;;15.50;8.68;;;;;;;24.09;60.37;99348.28;4909009;29;20019;-89
2023/07/13 04:42:21;;;;;;;19.05;9.80;;;;;;;24.23;60.60;99354.09;4907876;29;20031;-88
2023/07/13 04:45:14;;;;;;;12.18;7.97;;;;;;;24.20;60.06;99328.13;4890830;29;20020;-89
2023/07/13 04:47:40;;;;;;;12.82;7.97;;;;;;;24.46;58.70;99358.91;4918064;29;20055;-89
2023/07/13 04:50:06;;;;;;;11.00;7.82;;;;;;;24.48;58.74;99343.59;4898666;29;20054;-89
2023/07/13 04:52:55;;;;;;;15.18;7.47;;;;;;;24.64;57.84;99359.28;4908454;29;20035;-89
2023/07/13 04:55:20;;;;;;;11.45;7.50;;;;;;;24.55;57.71;99352.06;4939140;29;20031;-89
2023/07/13 04:57:46;;;;;;;12.30;7.60;;;;;;;24.76;58.06;99373.69;4907882;29;20083;-89
2023/07/13 05:00:15;;;;;;;13.02;8.00;;;;;;;24.70;57.37;99352.34;4909639;29;20028;-90
2023/07/13 05:02:45;;;;;;;18.15;8.63;;;;;;;24.90;57.08;99369.63;4924620;29;20039;-89
2023/07/13 05:05:11;;;;;;;9.45;7.72;;;;;;;25.05;56.58;99373.41;4908267;29;20020;-89
2023/07/13 05:07:36;;;;;;;12.20;7.63;;;;;;;25.00;56.72;99353.28;4905950;29;20035;-89
2023/07/13 05:10:03;;;;;;;13.57;7.82;;;;;;;25.16;56.96;99377.19;4899074;29;20036;-89
2023/07/13 05:13:07;;;;;;;17.52;7.38;;;;;;;25.09;56.80;99369.59;4895617;29;20036;-94
2023/07/13 05:15:37;;;;;;;10.85;7.65;;;;;;;25.06;56.89;99367.56;4898827;29;20060;-95
2023/07/13 05:18:04;;;;;;;11.43;6.65;;;;;;;24.93;55.74;99346.88;4907287;29;20028;-96
2023/07/13 05:20:31;;;;;;;11.10;7.57;;;;;;;25.08;57.36;99356.19;4893846;29;20040;-94
2023/07/13 05:23:08;;;;;;;12.60;7.15;;;;;;;25.44;56.46;99384.38;4909092;29;20025;-94
2023/07/13 05:25:37;;;;;;;10.45;6.90;;;;;;;25.27;54.89;99350.63;4906496;29;20041;-94
2023/07/13 05:29:04;;;;;;;;;;;;;;;;;;;;;
2023/07/13 05:31:32;;;;;;;12.30;7.32;;;;;;;25.41;54.97;99355.59;4871431;29;20058;-90
2023/07/13 05:34:07;;;;;;;12.27;7.10;;;;;;;25.59;55.22;99384.25;4911180;29;20514;-90
2023/07/13 05:36:36;;;;;;;12.85;7.43;;;;;;;25.57;55.54;99359.00;4889167;29;20047;-89
2023/07/13 05:39:08;;;;;;;16.25;7.00;;;;;;;25.67;55.60;99363.09;4878406;29;20096;-92
2023/07/13 05:41:45;;;;;;;10.50;7.45;;;;;;;25.88;55.07;99384.69;4904547;29;20028;-92
2023/07/13 05:44:24;;;;;;;;;;;;;;;;;;;;;
2023/07/13 05:47:01;;;;;;;12.57;6.97;;;;;;;26.10;54.71;99382.25;4899611;29;20518;-90
2023/07/13 05:49:48;;;;;;;11.40;6.63;;;;;;;26.19;54.24;99385.56;4862613;29;20100;-93
2023/07/13 05:52:29;;;;;;;17.95;8.55;;;;;;;26.24;53.17;99378.91;4877414;29;20063;-92
2023/07/13 05:54:57;;;;;;;8.73;5.93;;;;;;;26.38;52.37;99388.19;4887235;29;20033;-91
2023/07/13 05:57:30;;;;;;;9.70;7.18;;;;;;;26.49;53.49;99388.31;4886492;29;20056;-92
2023/07/13 06:00:01;;;;;;;12.68;6.80;;;;;;;26.49;51.91;99376.47;4884624;29;20491;-92
2023/07/13 06:02:47;;;;;;;10.55;6.70;;;;;;;26.66;52.06;99377.88;4888344;29;20123;-93
2023/07/13 06:05:28;;;;;;;12.65;9.35;;;;;;;26.79;51.81;99391.06;4894601;29;20104;-93
2023/07/13 06:11:27;;;;;;;14.23;8.77;;;;;;;26.88;53.02;99371.44;5021264;23;20075;-93
2023/07/13 06:14:17;;;;;;;10.85;6.80;;;;;;;26.97;51.99;99366.38;4926051;29;20035;-96
2023/07/13 06:16:53;;;;;;;;;;;;;;;;;;;;;
2023/07/13 06:19:30;;;;;;;11.90;6.80;;;;;;;27.18;51.38;99371.31;4937981;29;20067;-95
2023/07/13 06:22:07;;;;;;;13.35;7.40;;;;;;;27.28;51.29;99377.38;4907291;29;20035;-94
2023/07/13 06:24:38;;;;;;;15.75;8.20;;;;;;;27.47;50.43;99392.94;4901321;29;20122;-95
2023/07/13 06:27:12;;;;;;;9.73;6.40;;;;;;;27.42;50.01;99372.75;4903292;29;20047;-96
2023/07/13 06:29:39;;;;;;;9.90;5.90;;;;;;;27.58;49.79;99379.97;4899898;29;20039;-94
2023/07/13 06:32:05;;;;;;;9.90;5.85;;;;;;;27.77;49.37;99378.97;4911817;29;20114;-93
2023/07/13 06:34:42;;;;;;;13.02;7.15;;;;;;;27.96;50.03;99380.69;4910106;29;20031;-95
2023/07/13 06:37:10;;;;;;;11.65;6.50;;;;;;;28.07;50.44;99384.31;4912501;29;20028;-91
2023/07/13 06:39:35;;;;;;;11.13;6.35;;;;;;;27.95;49.81;99354.19;4915951;29;20035;-96
2023/07/13 06:42:01;;;;;;;16.90;6.63;;;;;;;28.11;49.53;99362.97;4918296;29;20038;-96
2023/07/13 06:44:36;;;;;;;13.18;7.22;;;;;;;28.42;49.12;99388.44;4921203;29;20034;-95
2023/07/13 06:50:28;;;;;;;14.57;7.18;;;;;;;28.62;48.27;99364.03;4962956;29;20034;-94
2023/07/13 06:52:53;;;;;;;11.02;7.20;;;;;;;28.79;47.71;99356.94;4919458;29;20023;-94
2023/07/13 06:55:19;;;;;;;11.70;6.13;;;;;;;29.01;48.41;99380.75;4916802;29;20023;-94
2023/07/13 06:57:47;;;;;;;11.80;6.22;;;;;;;29.22;48.34;99387.56;4922984;29;20031;-96
2023/07/13 07:00:14;;;;;;;12.80;8.48;;;;;;;29.29;47.19;99376.47;4918712;29;20058;-96
2023/07/13 07:05:36;;;;;;;15.02;7.30;;;;;;;29.50;46.89;99367.34;4942210;29;20103;-94
2023/07/13 07:08:02;;;;;;;11.75;6.88;;;;;;;29.58;46.95;99370.91;4914611;29;20174;-95
2023/07/13 07:10:31;;;;;;;10.82;6.30;;;;;;;29.77;45.17;99384.41;4922167;29;20038;-94
2023/07/13 07:12:57;;;;;;;10.13;6.10;;;;;;;29.83;45.35;99367.34;4920561;29;20454;-93
2023/07/13 07:17:58;;;;;;;12.32;6.55;;;;;;;29.93;44.27;99342.34;5098071;23;20059;-96
2023/07/13 07:20:26;;;;;;;12.95;6.93;;;;;;;30.10;44.47;99356.59;4902656;29;20096;-94
2023/07/13 07:22:52;;;;;;;9.63;6.75;;;;;;;30.21;43.47;99347.00;4908201;29;20035;-93
2023/07/13 07:25:18;;;;;;;17.45;7.15;;;;;;;30.31;44.26;99361.31;4910303;29;20064;-95
2023/07/13 07:27:44;;;;;;;15.25;8.52;;;;;;;30.35;44.60;99356.53;4901602;29;20024;-92
2023/07/13 07:30:35;;;;;;;9.68;7.00;;;;;;;30.62;44.50;99367.91;4906878;29;20035;-91
2023/07/13 07:33:03;;;;;;;12.30;7.53;;;;;;;30.64;44.94;99353.63;4925019;29;20019;-91
2023/07/13 07:36:19;;;;;;;15.40;7.35;;;;;;;30.90;43.58;99378.13;4919056;29;20027;-92
2023/07/13 07:38:45;;;;;;;12.25;8.23;;;;;;;30.93;42.69;99355.06;4941179;29;20039;-92
2023/07/13 07:41:13;;;;;;;16.63;7.85;;;;;;;31.08;41.49;99355.75;4912858;29;20027;-90
2023/07/13 07:43:39;;;;;;;13.68;7.03;;;;;;;31.16;41.85;99357.28;4910589;29;20486;-89
2023/07/13 07:46:04;;;;;;;10.60;6.55;;;;;;;31.25;43.01;99359.59;4906515;29;20026;-91
2023/07/13 07:48:45;;;;;;;14.45;7.00;;;;;;;31.38;43.04;99366.25;4912942;29;20080;-91
2023/07/13 07:51:11;;;;;;;14.85;8.68;;;;;;;31.39;43.17;99353.13;4921236;29;20469;-89
2023/07/13 07:53:36;;;;;;;9.25;6.85;;;;;;;31.61;42.43;99362.13;4901167;29;20036;-90
2023/07/13 07:56:02;;;;;;;8.32;6.63;;;;;;;31.56;42.37;99338.28;4900883;29;20047;-90
2023/07/13 07:58:28;;;;;;;11.45;6.35;;;;;;;31.72;42.31;99350.88;4911682;29;20032;-91
2023/07/13 08:01:39;;;;;;;13.40;7.45;;;;;;;31.93;41.84;99364.56;4901417;29;20019;-91
2023/07/13 08:04:05;;;;;;;12.00;6.90;;;;;;;31.97;41.18;99340.25;4928826;29;20032;-91
2023/07/13 08:06:33;;;;;;;8.60;6.43;;;;;;;32.15;40.41;99356.03;4935724;29;20102;-91
2023/07/13 08:09:01;;;;;;;106.40;70.22;;;;;;;32.28;40.29;99345.91;4925262;29;20032;-93
2023/07/13 08:11:26;;;;;;;14.50;9.25;;;;;;;32.45;39.69;99344.09;4906270;29;20036;-92
2023/07/13 08:13:52;;;;;;;11.27;6.45;;;;;;;32.59;39.76;99348.72;4911509;29;20032;-90
2023/07/13 08:19:20;;;;;;;10.90;5.28;;;;;;;32.85;36.41;99357.53;4937952;27;3545356;-91
2023/07/13 08:21:56;;;;;;;7.28;5.43;;;;;;;32.77;37.33;99337.34;4988356;28;20040;-90
2023/07/13 08:38:10;;;;;;;7.32;4.70;;;;;;;33.21;34.65;99339.06;5040898;28;20108;-93
2023/07/13 08:40:35;;;;;;;6.93;4.07;;;;;;;33.33;33.64;99339.66;5024976;28;20057;-92
2023/07/13 08:43:01;;;;;;;6.00;3.63;;;;;;;33.42;33.43;99343.50;5024688;28;20026;-92
2023/07/13 08:45:38;;;;;;;6.18;3.30;;;;;;;33.55;31.92;99357.63;5001927;28;20026;-92
2023/07/13 08:48:28;;;;;;;5.90;4.45;;;;;;;33.68;32.49;99357.84;4997131;28;20022;-90
2023/07/13 08:51:31;;;;;;;7.72;4.00;;;;;;;33.78;32.64;99350.47;5037355;28;20047;-89
2023/07/13 08:54:01;;;;;;;8.00;4.40;;;;;;;33.85;31.70;99341.16;5019162;28;20042;-91
2023/07/13 08:56:34;;;;;;;6.15;3.40;;;;;;;33.94;30.62;99335.81;4998409;28;20041;-93
2023/07/13 08:59:11;;;;;;;12.32;5.28;;;;;;;33.98;31.49;99325.38;4981556;28;20034;-91
2023/07/13 09:01:59;;;;;;;6.03;3.50;;;;;;;34.01;31.14;99319.72;4982263;28;20034;-90
2023/07/13 09:04:37;;;;;;;6.63;4.25;;;;;;;34.13;32.16;99318.28;4985483;28;20097;-89
2023/07/13 09:07:21;;;;;;;5.97;3.50;;;;;;;34.30;31.64;99332.34;4982122;28;20023;-91
2023/07/13 09:10:17;;;;;;;6.00;3.25;;;;;;;34.18;30.70;99308.59;4980615;28;20090;-92
2023/07/13 09:12:58;;;;;;;7.55;3.38;;;;;;;34.34;30.86;99330.25;4996745;28;20524;-92
2023/07/13 09:15:39;;;;;;;8.73;4.95;;;;;;;34.22;30.67;99312.13;5012195;28;20058;-90
2023/07/13 09:18:26;;;;;;;5.57;3.60;;;;;;;34.31;31.21;99325.53;4980687;28;20047;-95
2023/07/13 09:21:15;;;;;;;5.10;3.42;;;;;;;34.44;31.46;99312.47;5084909;28;20030;-94
2023/07/13 09:23:44;;;;;;;5.97;3.00;;;;;;;34.46;31.51;99312.81;5046195;28;20025;-95
2023/07/13 09:26:28;;;;;;;7.35;3.70;;;;;;;34.46;31.11;99298.84;4999830;28;20113;-93
2023/07/13 09:32:15;;;;;;;6.25;3.22;;;;;;;34.68;28.99;99315.97;5276521;22;20068;-96
2023/07/13 09:34:55;;;;;;;4.32;2.65;;;;;;;34.60;29.37;99301.31;5041491;28;20035;-93
2023/07/13 09:37:30;;;;;;;6.50;3.10;;;;;;;34.67;29.57;99308.78;5021982;28;20045;-95
2023/07/13 09:39:55;;;;;;;4.22;2.58;;;;;;;34.75;27.37;99298.22;5034125;28;20037;-94
2023/07/13 09:42:22;;;;;;;5.70;2.67;;;;;;;34.70;27.17;99285.53;5033760;28;20063;-96
2023/07/13 09:44:48;;;;;;;8.05;4.72;;;;;;;34.87;27.91;99305.94;5016166;28;20483;-96
2023/07/13 09:47:29;;;;;;;7.03;4.57;;;;;;;34.88;27.62;99301.88;5047549;28;20032;-94
2023/07/13 09:49:59;;;;;;;;;;;;;;;35.07;27.36;99310.63;5019454;28;20033;-95
2023/07/13 09:52:27;;;;;;;6.50;3.10;;;;;;;34.91;27.39;99300.25;5031832;28;19913;-94
2023/07/13 09:55:08;;;;;;;;;;;;;;;;;;;;;
2023/07/13 09:57:34;;;;;;;4.32;3.03;;;;;;;35.13;28.93;99283.69;5033001;28;20088;-95
2023/07/13 10:08:35;;;;;;;6.13;2.67;;;;;;;35.71;28.07;99295.03;5086802;28;20103;-96
2023/07/13 10:11:25;;;;;;;8.93;5.03;;;;;;;35.62;27.67;99297.66;5074968;28;20027;-95
2023/07/13 10:13:59;;;;;;;7.15;3.33;;;;;;;35.72;27.52;99310.63;5051326;28;20107;-90
2023/07/13 10:16:26;;;;;;;4.60;2.70;;;;;;;35.54;27.03;99287.88;5045301;28;20437;-91
2023/07/13 10:19:01;;;;;;;5.63;2.25;;;;;;;35.68;27.67;99298.72;5025318;28;20054;-90
2023/07/13 10:24:50;;;;;;;5.07;3.10;;;;;;;35.69;26.83;99291.09;5062192;28;20043;-90
2023/07/13 10:30:43;;;;;;;4.70;3.08;;;;;;;35.74;27.47;99288.56;5043957;28;20033;-91
2023/07/13 10:37:11;;;;;;;4.75;2.60;;;;;;;35.90;25.54;99289.72;5044477;28;20069;-90
2023/07/13 10:39:39;;;;;;;4.82;2.53;;;;;;;35.72;25.72;99274.19;5021846;28;20411;-93
2023/07/13 10:45:22;;;;;;;4.65;3.10;;;;;;;35.66;26.40;99255.59;5003720;28;20037;-95
2023/07/13 10:47:49;;;;;;;3.50;2.28;;;;;;;35.76;26.50;99257.28;4995626;28;20030;-91
2023/07/13 10:50:30;;;;;;;4.82;2.72;;;;;;;35.98;25.11;99275.03;5006390;28;20087;-94
2023/07/13 10:53:04;;;;;;;3.15;1.90;;;;;;;35.93;22.77;99278.41;4983732;28;20038;-92
2023/07/13 10:55:42;;;;;;;5.20;2.33;;;;;;;36.01;24.58;99274.16;4968458;28;20042;-91
2023/07/13 10:58:18;;;;;;;3.55;2.15;;;;;;;36.06;24.39;99280.47;4981518;28;20132;-91
2023/07/13 11:00:53;;;;;;;6.03;2.60;;;;;;;36.16;26.17;99288.56;4982939;28;20034;-91
2023/07/13 11:03:22;;;;;;;8.38;2.42;;;;;;;36.13;25.41;99278.25;4966474;28;20037;-90
2023/07/13 11:05:51;;;;;;;5.93;2.53;;;;;;;36.27;25.39;99291.06;4963490;28;20035;-92
2023/07/13 11:08:31;;;;;;;3.90;2.70;;;;;;;36.26;25.45;99285.91;4962429;28;20125;-89
2023/07/13 11:10:59;;;;;;;4.72;2.78;;;;;;;36.24;26.51;99282.78;5003475;28;20112;-91
2023/07/13 11:13:49;;;;;;;4.10;2.60;;;;;;;36.44;26.68;99297.34;5007942;28;20419;-91
2023/07/13 11:16:24;;;;;;;6.40;3.22;;;;;;;36.50;27.76;99294.78;5030768;28;20001;-96
2023/07/13 11:18:51;;;;;;;5.15;2.88;;;;;;;36.53;26.54;99283.47;5026752;28;20472;-96
2023/07/13 11:21:21;;;;;;;5.88;2.72;;;;;;;36.45;25.97;99275.72;4992500;28;20032;-96
2023/07/13 11:24:04;;;;;;;20.80;16.55;;;;;;;36.50;25.86;99280.75;5023428;28;20032;-96
2023/07/13 11:27:14;;;;;;;7.70;3.08;;;;;;;36.61;26.17;99270.00;5032947;28;20048;-96
2023/07/13 11:29:40;;;;;;;6.55;2.90;;;;;;;36.58;24.75;99246.41;5070520;28;20025;-95
2023/07/13 11:32:29;;;;;;;6.20;2.65;;;;;;;36.62;25.30;99235.13;5029958;28;20008;-94
2023/07/13 11:35:13;;;;;;;6.15;2.40;;;;;;;36.89;24.46;99253.50;5035672;28;20025;-94
2023/07/13 11:37:39;;;;;;;8.95;6.80;;;;;;;36.99;25.11;99249.56;5031260;28;20024;-92
2023/07/13 11:40:06;;;;;;;4.47;2.70;;;;;;;37.01;25.20;99250.66;5067269;28;20032;-94
2023/07/13 11:42:32;;;;;;;6.32;2.60;;;;;;;36.99;24.43;99236.28;5034052;28;20024;-96
2023/07/13 11:45:22;;;;;;;6.90;2.92;;;;;;;37.09;24.21;99248.41;5021273;28;20041;-96
2023/07/13 11:48:38;;;;;;;;;;;;;;;;;;;;;
2023/07/13 12:13:55;;;;;;;5.57;2.85;;;;;;;37.70;24.74;99220.25;4944017;29;20094;-96
2023/07/13 12:16:36;;;;;;;8.40;3.10;;;;;;;37.72;24.62;99207.28;4925736;29;20039;-95
2023/07/13 12:19:24;;;;;;;5.60;2.85;;;;;;;37.78;24.42;99190.63;4925640;29;20095;-93
2023/07/13 12:22:01;;;;;;;4.60;2.63;;;;;;;37.92;23.64;99195.69;4921626;29;20399;-92
2023/07/13 12:24:50;;;;;;;6.57;3.22;;;;;;;38.09;23.51;99201.91;4994094;28;20043;-96
2023/07/13 12:27:20;;;;;;;6.60;3.10;;;;;;;38.02;23.92;99176.88;4927670;29;20035;-94
2023/07/13 12:30:02;;;;;;;6.80;2.95;;;;;;;38.15;23.77;99191.63;4997645;28;20033;-94
2023/07/13 12:32:33;;;;;;;4.85;2.50;;;;;;;38.22;23.91;99170.88;5014178;28;20029;-93
2023/07/13 12:35:24;;;;;;;5.32;3.08;;;;;;;38.42;24.44;99188.13;5028464;28;20029;-93
2023/07/13 12:37:52;;;;;;;7.13;3.10;;;;;;;38.35;24.50;99168.72;5022694;28;20496;-95
2023/07/13 12:40:24;;;;;;;5.55;3.17;;;;;;;38.49;24.56;99172.97;4977884;28;20009;-94
2023/07/13 12:42:53;;;;;;;5.55;2.92;;;;;;;38.59;23.71;99159.75;4988987;28;20026;-94
2023/07/13 12:45:23;;;;;;;5.90;2.45;;;;;;;38.71;23.63;99175.72;4991351;28;20544;-92
2023/07/13 12:47:56;;;;;;;;;;;;;;;38.77;23.03;99173.84;4990490;28;20028;-94
2023/07/13 12:50:31;;;;;;;6.40;2.83;;;;;;;38.78;23.52;99149.28;5005941;28;19913;-92
2023/07/13 12:53:03;;;;;;;5.95;2.20;;;;;;;38.85;22.47;99151.00;4988608;28;20117;-94
2023/07/13 12:55:32;;;;;;;7.90;2.65;;;;;;;38.91;23.85;99154.78;4988255;28;20022;-93
2023/07/13 12:58:07;;;;;;;8.85;3.08;;;;;;;38.85;22.86;99137.75;4984560;28;20022;-96
2023/07/13 13:00:38;;;;;;;7.25;2.75;;;;;;;38.78;23.40;99133.19;5006593;28;20034;-93
2023/07/13 13:03:43;;;;;;;3.80;2.45;;;;;;;39.11;22.54;99162.78;5013624;28;20034;-96
2023/07/13 13:06:21;;;;;;;5.18;2.45;;;;;;;39.17;22.14;99153.25;5036950;28;20041;-92
2023/07/13 13:09:02;;;;;;;5.95;2.70;;;;;;;39.04;22.25;99137.75;5020572;28;20031;-91
2023/07/13 13:11:30;;;;;;;3.78;3.05;;;;;;;39.21;22.49;99155.91;5000450;28;20021;-90